Time;durP1;ratioP1;P1;durP2;ratioP2;P2;SDS_P1;SDS_P2;PMS_P1;PMS_P2;Temp;Humidity;BMP_temperature;BMP_pressure;BME280_temperature;BME280_humidity;BME280_pressure;Samples;Min_cycle;Max_cycle;Signal;HPM_P1;HPM_P2
2023/09/18 00:00:11;;;;;;;2.90;2.70;;;24.90;99.90;;;;;;4995381;28;20351;-89
2023/09/18 00:02:41;;;;;;;3.73;2.70;;;24.80;99.90;;;;;;5009683;28;20378;-89
2023/09/18 00:05:07;;;;;;;3.13;2.80;;;24.80;99.90;;;;;;4996834;28;20559;-89
2023/09/18 00:07:33;;;;;;;2.97;2.67;;;24.80;99.90;;;;;;5008558;28;20246;-89
2023/09/18 00:09:58;;;;;;;2.70;2.50;;;24.80;99.90;;;;;;4997881;28;20185;-89
2023/09/18 00:12:24;;;;;;;2.90;2.60;;;24.80;99.90;;;;;;5006934;28;20181;-89
2023/09/18 00:14:50;;;;;;;3.60;2.77;;;24.80;99.90;;;;;;4999569;28;20217;-89
2023/09/18 00:17:16;;;;;;;2.80;2.60;;;24.80;99.90;;;;;;5018557;28;20442;-89
2023/09/18 00:19:43;;;;;;;3.17;2.67;;;24.80;99.90;;;;;;5012427;28;20185;-89
2023/09/18 00:22:09;;;;;;;2.90;2.70;;;24.80;99.90;;;;;;5010778;28;20172;-89
2023/09/18 00:24:34;;;;;;;3.03;2.73;;;24.80;99.90;;;;;;5004433;28;20189;-89
2023/09/18 00:27:00;;;;;;;2.50;2.30;;;24.80;99.90;;;;;;4998832;28;20218;-89
2023/09/18 00:29:28;;;;;;;3.13;2.80;;;24.80;99.90;;;;;;5006711;28;20227;-89
2023/09/18 00:31:53;;;;;;;2.90;2.70;;;24.80;99.90;;;;;;5000031;28;20177;-89
2023/09/18 00:34:19;;;;;;;2.77;2.57;;;24.80;99.90;;;;;;5038907;28;20196;-89
2023/09/18 00:36:45;;;;;;;2.97;2.67;;;24.70;99.90;;;;;;5014667;28;20184;-89
2023/09/18 00:39:11;;;;;;;2.50;2.27;;;24.70;99.90;;;;;;5004985;28;20204;-90
2023/09/18 00:41:37;;;;;;;3.03;2.73;;;24.70;99.90;;;;;;5035193;28;20173;-89
2023/09/18 00:44:05;;;;;;;3.07;2.80;;;24.70;99.90;;;;;;5007330;28;20222;-89
2023/09/18 00:46:31;;;;;;;3.53;2.40;;;24.70;99.90;;;;;;4995399;28;20173;-89
2023/09/18 00:48:57;;;;;;;3.23;2.70;;;24.70;99.90;;;;;;5009847;28;20635;-89
2023/09/18 00:51:23;;;;;;;3.10;2.80;;;24.70;99.90;;;;;;4995065;28;20177;-89
2023/09/18 00:53:49;;;;;;;2.90;2.70;;;24.70;99.90;;;;;;5005089;28;20176;-89
2023/09/18 00:56:17;;;;;;;3.33;3.00;;;24.70;99.90;;;;;;4998300;28;20201;-89
2023/09/18 00:58:46;;;;;;;3.60;2.50;;;24.70;99.90;;;;;;5003760;28;20173;-89
2023/09/18 01:01:16;;;;;;;3.13;2.83;;;24.70;99.90;;;;;;5000093;28;20165;-89
2023/09/18 01:03:41;;;;;;;5.03;2.70;;;24.60;99.90;;;;;;5001943;28;20328;-89
2023/09/18 01:06:07;;;;;;;3.20;2.90;;;24.70;99.90;;;;;;5002085;28;20611;-89
2023/09/18 01:08:33;;;;;;;3.03;2.60;;;24.60;99.90;;;;;;4999163;28;20176;-89
2023/09/18 01:11:10;;;;;;;3.20;2.90;;;24.60;99.90;;;;;;5005621;28;20260;-89
2023/09/18 01:13:51;;;;;;;2.90;2.60;;;24.60;99.90;;;;;;5013201;28;20184;-89
2023/09/18 01:16:37;;;;;;;2.77;2.57;;;24.60;99.90;;;;;;5002992;28;20204;-89
2023/09/18 01:19:03;;;;;;;2.80;2.60;;;24.60;99.90;;;;;;5007798;28;20577;-89
2023/09/18 01:21:29;;;;;;;3.00;2.70;;;24.60;99.90;;;;;;5021820;28;20230;-89
2023/09/18 01:23:55;;;;;;;2.63;2.43;;;24.60;99.90;;;;;;5041391;28;20292;-89
2023/09/18 01:26:20;;;;;;;3.00;2.50;;;24.60;99.90;;;;;;5002115;28;20308;-89
2023/09/18 01:28:46;;;;;;;2.80;2.60;;;24.60;99.90;;;;;;5013011;28;20203;-88
2023/09/18 01:31:12;;;;;;;2.70;2.50;;;24.60;99.90;;;;;;5022283;28;20252;-89
2023/09/18 01:33:39;;;;;;;3.30;2.60;;;24.60;99.90;;;;;;4992274;28;20516;-89
2023/09/18 01:36:08;;;;;;;2.80;2.50;;;24.60;99.90;;;;;;5010033;28;20256;-89
2023/09/18 01:38:35;;;;;;;2.87;2.53;;;24.60;99.90;;;;;;4992449;28;20315;-90
2023/09/18 01:41:01;;;;;;;2.80;2.60;;;24.60;99.90;;;;;;5002317;28;20333;-89
2023/09/18 01:43:27;;;;;;;3.53;2.60;;;24.60;99.90;;;;;;4995715;28;20216;-89
2023/09/18 01:45:54;;;;;;;2.70;2.50;;;24.50;99.90;;;;;;5007821;28;20204;-89
2023/09/18 01:48:20;;;;;;;2.63;2.43;;;24.60;99.90;;;;;;5013575;28;20558;-89
2023/09/18 01:50:46;;;;;;;3.23;2.87;;;24.50;99.90;;;;;;4995233;28;20174;-89
2023/09/18 01:53:12;;;;;;;2.70;2.40;;;24.50;99.90;;;;;;5012092;28;20170;-89
2023/09/18 01:55:41;;;;;;;2.90;2.70;;;24.50;99.90;;;;;;5021607;28;20202;-89
2023/09/18 01:58:07;;;;;;;2.70;2.50;;;24.50;99.90;;;;;;5025045;28;20377;-89
2023/09/18 02:00:33;;;;;;;2.50;2.30;;;24.50;99.90;;;;;;5006326;28;20498;-89
2023/09/18 02:02:59;;;;;;;3.00;2.70;;;24.50;99.90;;;;;;5004546;28;20509;-89
2023/09/18 02:05:26;;;;;;;3.07;2.33;;;24.50;99.90;;;;;;5010746;28;20555;-89
2023/09/18 02:07:51;;;;;;;3.33;2.50;;;24.50;99.90;;;;;;5011908;28;20654;-89
2023/09/18 02:10:17;;;;;;;3.27;2.60;;;24.50;99.90;;;;;;5010818;28;20276;-88
2023/09/18 02:12:43;;;;;;;2.67;2.47;;;24.50;99.90;;;;;;5002631;28;20566;-89
2023/09/18 02:15:10;;;;;;;2.70;2.50;;;24.50;99.90;;;;;;5011708;28;20522;-89
2023/09/18 02:17:36;;;;;;;3.23;2.80;;;24.50;99.90;;;;;;5019058;28;20632;-89
2023/09/18 02:20:05;;;;;;;3.03;2.73;;;24.50;99.90;;;;;;5014491;28;20161;-89
2023/09/18 02:22:32;;;;;;;3.03;2.60;;;24.50;99.90;;;;;;4996661;28;20180;-89
2023/09/18 02:24:59;;;;;;;2.97;2.40;;;24.50;99.90;;;;;;4994233;28;20209;-89
2023/09/18 02:27:25;;;;;;;3.10;2.80;;;24.40;99.90;;;;;;5010190;28;20263;-89
2023/09/18 02:29:53;;;;;;;5.40;2.53;;;24.50;99.90;;;;;;4998848;28;20272;-89
2023/09/18 02:32:19;;;;;;;3.10;2.60;;;24.40;99.90;;;;;;5009513;28;20582;-89
2023/09/18 02:34:45;;;;;;;2.87;2.50;;;24.40;99.90;;;;;;4999111;28;20220;-89
2023/09/18 02:37:11;;;;;;;2.50;2.30;;;24.40;99.90;;;;;;5007958;28;20180;-89
2023/09/18 02:39:37;;;;;;;2.73;2.40;;;24.40;99.90;;;;;;5002670;28;20170;-89
2023/09/18 02:42:02;;;;;;;2.50;2.30;;;24.40;99.90;;;;;;5004488;28;20169;-89
2023/09/18 02:44:28;;;;;;;2.77;2.33;;;24.40;99.90;;;;;;5004759;28;20517;-90
2023/09/18 02:46:54;;;;;;;2.77;2.57;;;24.40;99.90;;;;;;5003429;28;20187;-89
2023/09/18 02:49:20;;;;;;;2.87;2.67;;;24.40;99.90;;;;;;5006488;28;20189;-89
2023/09/18 02:51:46;;;;;;;3.03;2.40;;;24.40;99.90;;;;;;5001263;28;20230;-89
2023/09/18 02:54:15;;;;;;;3.03;2.73;;;24.40;99.90;;;;;;5007106;28;20176;-89
2023/09/18 02:56:40;;;;;;;3.37;2.53;;;24.40;99.90;;;;;;5016917;28;20170;-89
2023/09/18 02:59:06;;;;;;;2.70;2.50;;;24.40;99.90;;;;;;5006864;28;20170;-89
2023/09/18 03:01:32;;;;;;;2.77;2.50;;;24.40;99.90;;;;;;5034216;28;20172;-90
2023/09/18 03:03:58;;;;;;;3.03;2.30;;;24.40;99.90;;;;;;5005657;28;20456;-89
2023/09/18 03:06:24;;;;;;;3.17;2.67;;;24.40;99.90;;;;;;5035343;28;20173;-89
2023/09/18 03:08:50;;;;;;;3.70;2.90;;;24.40;99.90;;;;;;5014024;28;20204;-90
2023/09/18 03:11:16;;;;;;;2.83;2.50;;;24.30;99.90;;;;;;4997790;28;20267;-90
2023/09/18 03:13:47;;;;;;;2.60;2.40;;;24.30;99.90;;;;;;5008439;28;20180;-89
2023/09/18 03:16:13;;;;;;;2.50;2.27;;;24.40;99.90;;;;;;4994543;28;20221;-90
2023/09/18 03:18:38;;;;;;;2.40;2.20;;;24.30;99.90;;;;;;4999753;28;20169;-89
2023/09/18 03:21:04;;;;;;;2.77;2.47;;;24.30;99.90;;;;;;4999216;28;20243;-89
2023/09/18 03:23:30;;;;;;;2.47;2.27;;;24.30;99.90;;;;;;5003871;28;20806;-90
2023/09/18 03:25:59;;;;;;;2.37;2.10;;;24.30;99.90;;;;;;5001851;28;20567;-89
2023/09/18 03:28:25;;;;;;;2.50;2.30;;;24.30;99.90;;;;;;5001579;28;20165;-89
2023/09/18 03:30:51;;;;;;;2.50;2.30;;;24.30;99.90;;;;;;5038094;28;20255;-89
2023/09/18 03:33:27;;;;;;;3.20;2.60;;;24.30;99.90;;;;;;5000424;28;20162;-89
2023/09/18 03:35:58;;;;;;;2.40;2.20;;;24.30;99.90;;;;;;5022472;28;20235;-89
2023/09/18 03:38:26;;;;;;;3.03;2.50;;;24.30;99.90;;;;;;4997946;28;20185;-89
2023/09/18 03:40:51;;;;;;;2.23;2.03;;;24.30;99.90;;;;;;5012238;28;20268;-89
2023/09/18 03:43:17;;;;;;;2.83;2.50;;;24.30;99.90;;;;;;5030999;28;20177;-89
2023/09/18 03:45:43;;;;;;;2.57;2.37;;;24.30;99.90;;;;;;5027378;28;20200;-89
2023/09/18 03:48:09;;;;;;;3.70;2.67;;;24.30;99.90;;;;;;5047977;28;20181;-89
2023/09/18 03:50:35;;;;;;;2.40;2.20;;;24.30;99.90;;;;;;5005920;28;20360;-89
2023/09/18 03:53:01;;;;;;;2.80;2.50;;;24.30;99.90;;;;;;5017328;28;20407;-89
2023/09/18 03:55:27;;;;;;;2.67;2.47;;;24.20;99.90;;;;;;5004129;28;20213;-91
2023/09/18 03:57:52;;;;;;;2.17;2.07;;;24.30;99.90;;;;;;5015742;28;20173;-90
2023/09/18 04:00:18;;;;;;;2.87;2.40;;;24.30;99.90;;;;;;5005298;28;20485;-89
2023/09/18 04:02:44;;;;;;;2.30;2.10;;;24.30;99.90;;;;;;5016522;28;20188;-90
2023/09/18 04:05:10;;;;;;;2.37;2.17;;;24.30;99.90;;;;;;5008714;28;20201;-89
2023/09/18 04:07:35;;;;;;;3.33;2.43;;;24.20;99.90;;;;;;5014394;28;20544;-90
2023/09/18 04:10:03;;;;;;;2.27;2.07;;;24.20;99.90;;;;;;5009504;28;20162;-89
2023/09/18 04:12:29;;;;;;;3.63;2.40;;;24.20;99.90;;;;;;5011548;28;20180;-89
2023/09/18 04:14:54;;;;;;;2.97;2.40;;;24.30;99.90;;;;;;5009685;28;20295;-89
2023/09/18 04:17:21;;;;;;;2.67;2.47;;;24.20;99.90;;;;;;5008371;28;20263;-89
2023/09/18 04:19:46;;;;;;;2.70;2.50;;;24.20;99.90;;;;;;5012850;28;20552;-89
2023/09/18 04:22:12;;;;;;;2.80;2.60;;;24.20;99.90;;;;;;5021370;28;20183;-88
2023/09/18 04:24:39;;;;;;;2.67;2.47;;;24.20;99.90;;;;;;5011770;28;20184;-89
2023/09/18 04:27:05;;;;;;;2.70;2.40;;;24.20;99.90;;;;;;5005189;28;20173;-89
2023/09/18 04:29:30;;;;;;;3.00;2.40;;;24.20;99.90;;;;;;5015092;28;20483;-89
2023/09/18 04:31:57;;;;;;;2.60;2.40;;;24.20;99.90;;;;;;5003155;28;20476;-88
2023/09/18 04:34:23;;;;;;;2.60;2.40;;;24.20;99.90;;;;;;5019872;28;20426;-88
2023/09/18 04:36:49;;;;;;;2.40;2.20;;;24.20;99.90;;;;;;4999031;28;20604;-88
2023/09/18 04:39:14;;;;;;;2.60;2.40;;;24.20;99.90;;;;;;5010631;28;20177;-88
2023/09/18 04:41:43;;;;;;;2.70;2.47;;;24.20;99.90;;;;;;5006698;28;20242;-88
2023/09/18 04:44:09;;;;;;;2.50;2.00;;;24.20;99.90;;;;;;4989378;28;20174;-89
2023/09/18 04:46:35;;;;;;;2.20;2.00;;;24.20;99.90;;;;;;4996347;28;20170;-89
2023/09/18 04:49:03;;;;;;;2.60;2.40;;;24.20;99.90;;;;;;5024479;28;20177;-89
2023/09/18 04:51:32;;;;;;;2.40;2.20;;;24.20;99.90;;;;;;5019673;28;20535;-89
2023/09/18 04:53:57;;;;;;;2.90;2.33;;;24.20;99.90;;;;;;4990818;28;20335;-88
2023/09/18 04:56:25;;;;;;;2.37;2.10;;;24.20;99.90;;;;;;4995998;28;20546;-87
2023/09/18 04:58:51;;;;;;;2.50;2.23;;;24.20;99.90;;;;;;5030135;28;20373;-89
2023/09/18 05:01:18;;;;;;;2.97;2.40;;;24.20;99.90;;;;;;4994067;28;20401;-88
2023/09/18 05:03:44;;;;;;;2.93;2.40;;;24.20;99.90;;;;;;5000517;28;20572;-89
2023/09/18 05:06:10;;;;;;;2.87;2.60;;;24.20;99.90;;;;;;4996127;28;20450;-89
2023/09/18 05:08:36;;;;;;;4.80;2.50;;;24.20;99.90;;;;;;5032661;28;20184;-89
2023/09/18 05:11:01;;;;;;;2.83;2.20;;;24.20;99.90;;;;;;5007585;28;20191;-88
2023/09/18 05:13:27;;;;;;;2.40;2.20;;;24.20;99.90;;;;;;4999709;28;20473;-89
2023/09/18 05:15:53;;;;;;;2.47;2.27;;;24.20;99.90;;;;;;5009431;28;20605;-89
2023/09/18 05:18:19;;;;;;;3.13;2.50;;;24.20;99.90;;;;;;4996530;28;20166;-88
2023/09/18 05:20:48;;;;;;;3.20;2.40;;;24.20;99.90;;;;;;5029011;28;20539;-89
2023/09/18 05:23:13;;;;;;;2.90;2.50;;;24.20;99.90;;;;;;5022675;28;20231;-89
2023/09/18 05:25:41;;;;;;;2.43;2.23;;;24.20;99.90;;;;;;4992164;28;20182;-89
2023/09/18 05:28:07;;;;;;;2.47;2.27;;;24.20;99.90;;;;;;5000224;28;20173;-88
2023/09/18 05:30:38;;;;;;;2.90;2.10;;;24.20;99.90;;;;;;5009357;28;20354;-88
2023/09/18 05:33:08;;;;;;;2.60;2.37;;;24.20;99.90;;;;;;4996604;28;20188;-89
2023/09/18 05:35:40;;;;;;;2.60;2.30;;;24.20;99.90;;;;;;4988338;28;20209;-89
2023/09/18 05:38:06;;;;;;;3.17;2.40;;;24.20;99.90;;;;;;4993556;28;20169;-88
2023/09/18 05:40:32;;;;;;;3.77;2.70;;;24.20;99.90;;;;;;4994714;28;20165;-89
2023/09/18 05:42:58;;;;;;;4.60;2.70;;;24.20;99.90;;;;;;4999320;28;20511;-89
2023/09/18 05:45:24;;;;;;;3.00;2.70;;;24.20;99.90;;;;;;4997817;28;20605;-88
2023/09/18 05:48:05;;;;;;;2.83;2.20;;;24.20;99.90;;;;;;4999315;28;20381;-88
2023/09/18 05:50:32;;;;;;;3.57;2.50;;;24.20;99.90;;;;;;4994443;28;20510;-88
2023/09/18 05:52:59;;;;;;;3.80;2.40;;;24.20;99.90;;;;;;4998640;28;20361;-89
2023/09/18 05:55:28;;;;;;;3.73;2.40;;;24.20;99.90;;;;;;4994380;28;20209;-87
2023/09/18 05:57:54;;;;;;;3.33;2.30;;;24.20;99.90;;;;;;5002836;28;20161;-89
2023/09/18 06:00:37;;;;;;;3.90;2.60;;;24.20;99.90;;;;;;4994766;28;20165;-89
2023/09/18 06:03:05;;;;;;;5.03;2.63;;;24.20;99.90;;;;;;5005296;28;20172;-89
2023/09/18 06:05:36;;;;;;;4.80;2.60;;;24.20;99.90;;;;;;4998224;28;20177;-89
2023/09/18 06:08:01;;;;;;;4.93;2.47;;;24.20;99.90;;;;;;5011383;28;20252;-89
2023/09/18 06:10:27;;;;;;;4.13;2.50;;;24.20;99.90;;;;;;5024457;28;20174;-89
2023/09/18 06:12:54;;;;;;;6.43;2.77;;;24.20;99.90;;;;;;4992513;28;20272;-89
2023/09/18 06:15:19;;;;;;;4.70;2.63;;;24.20;99.90;;;;;;5037582;28;20689;-89
2023/09/18 06:17:45;;;;;;;3.97;2.30;;;24.20;99.90;;;;;;4990481;28;20169;-89
2023/09/18 06:20:15;;;;;;;3.80;2.60;;;24.20;99.90;;;;;;5001830;28;20266;-89
2023/09/18 06:22:41;;;;;;;3.87;2.50;;;24.20;99.90;;;;;;4991622;28;20540;-88
2023/09/18 06:25:12;;;;;;;3.67;2.33;;;24.10;99.90;;;;;;5011732;28;20243;-89
2023/09/18 06:27:38;;;;;;;4.50;2.73;;;24.20;99.90;;;;;;5011323;28;20184;-89
2023/09/18 06:30:05;;;;;;;3.63;2.67;;;24.20;99.90;;;;;;5005567;28;20177;-89
2023/09/18 06:32:31;;;;;;;4.00;2.60;;;24.20;99.90;;;;;;4992379;28;20243;-89
2023/09/18 06:34:59;;;;;;;4.23;2.70;;;24.20;99.90;;;;;;4999790;28;20262;-89
2023/09/18 06:37:25;;;;;;;3.73;2.40;;;24.20;99.90;;;;;;4993307;28;20193;-89
2023/09/18 06:39:51;;;;;;;3.83;2.67;;;24.20;99.90;;;;;;4998483;28;20228;-89
2023/09/18 06:42:17;;;;;;;2.83;2.30;;;24.20;99.90;;;;;;5010575;28;20393;-89
2023/09/18 06:44:43;;;;;;;3.03;2.20;;;24.20;99.90;;;;;;5005545;28;20515;-89
2023/09/18 06:47:09;;;;;;;4.03;2.70;;;24.20;99.90;;;;;;4990280;28;20414;-89
2023/09/18 06:49:35;;;;;;;3.73;2.47;;;24.20;99.90;;;;;;4992824;28;20173;-89
2023/09/18 06:52:00;;;;;;;4.73;2.40;;;24.20;99.90;;;;;;5002537;28;20185;-89
2023/09/18 06:54:26;;;;;;;4.57;2.77;;;24.20;99.90;;;;;;4993526;28;20485;-89
2023/09/18 06:56:52;;;;;;;5.40;2.60;;;24.20;99.90;;;;;;5003470;28;20177;-89
2023/09/18 06:59:18;;;;;;;5.17;2.23;;;24.20;99.90;;;;;;4992252;28;20173;-89
2023/09/18 07:01:44;;;;;;;5.50;2.70;;;24.20;99.90;;;;;;5002226;28;20216;-89
2023/09/18 07:04:09;;;;;;;5.23;2.60;;;24.20;99.90;;;;;;4991988;28;20407;-89
2023/09/18 07:06:35;;;;;;;3.33;2.27;;;24.20;99.90;;;;;;5003016;28;20178;-89
2023/09/18 07:09:04;;;;;;;6.13;2.50;;;24.20;99.90;;;;;;5008561;28;20495;-89
2023/09/18 07:11:29;;;;;;;3.83;2.40;;;24.20;99.90;;;;;;5001431;28;20227;-89
2023/09/18 07:13:55;;;;;;;4.57;2.67;;;24.20;99.90;;;;;;5025532;28;20499;-89
2023/09/18 07:16:21;;;;;;;6.30;2.50;;;24.20;99.90;;;;;;5001276;28;20529;-89
2023/09/18 07:18:55;;;;;;;6.07;2.60;;;24.20;99.90;;;;;;4998943;28;20276;-90
2023/09/18 07:21:20;;;;;;;3.90;2.20;;;24.20;99.90;;;;;;5016188;28;20339;-89
2023/09/18 07:23:47;;;;;;;4.27;2.20;;;24.20;99.90;;;;;;5030273;28;20205;-89
2023/09/18 07:26:13;;;;;;;5.83;2.67;;;24.20;99.90;;;;;;4996679;28;20188;-89
2023/09/18 07:28:40;;;;;;;5.93;2.43;;;24.20;99.90;;;;;;5031006;28;20182;-89
2023/09/18 07:31:07;;;;;;;4.23;2.40;;;24.20;99.90;;;;;;4989456;28;20201;-89
2023/09/18 07:33:32;;;;;;;5.33;2.50;;;24.20;99.90;;;;;;4999950;28;20574;-89
2023/09/18 07:36:10;;;;;;;5.37;2.60;;;24.30;99.90;;;;;;4995663;28;20216;-90
2023/09/18 07:39:05;;;;;;;5.37;2.73;;;24.30;99.90;;;;;;4998424;28;20490;-89
2023/09/18 07:41:32;;;;;;;3.87;2.50;;;24.30;99.90;;;;;;4989506;28;20626;-89
2023/09/18 07:43:59;;;;;;;4.07;2.50;;;24.40;99.90;;;;;;5000147;28;20177;-89
2023/09/18 07:46:25;;;;;;;5.17;2.60;;;24.40;99.90;;;;;;4990664;28;20944;-89
2023/09/18 07:48:50;;;;;;;4.90;2.50;;;24.50;99.90;;;;;;4999119;28;20642;-89
2023/09/18 07:51:16;;;;;;;3.50;2.50;;;24.50;99.90;;;;;;4988853;28;20169;-89
2023/09/18 07:53:43;;;;;;;4.63;2.30;;;24.50;99.90;;;;;;5003536;28;20330;-89
2023/09/18 07:56:09;;;;;;;4.03;2.27;;;24.50;99.90;;;;;;5006416;28;20200;-89
2023/09/18 07:58:38;;;;;;;6.33;2.53;;;24.40;99.90;;;;;;4997814;28;20177;-89
2023/09/18 08:01:16;;;;;;;4.90;2.70;;;24.50;99.90;;;;;;5011750;28;20269;-88
2023/09/18 08:03:42;;;;;;;5.30;2.40;;;24.40;99.90;;;;;;5031241;28;20501;-89
2023/09/18 08:06:08;;;;;;;8.50;2.30;;;24.40;99.90;;;;;;5008795;28;20212;-89
2023/09/18 08:08:33;;;;;;;4.80;2.30;;;24.40;99.90;;;;;;5014633;28;20227;-89
2023/09/18 08:11:08;;;;;;;3.80;2.10;;;24.40;99.90;;;;;;5007776;28;20183;-89
2023/09/18 08:13:33;;;;;;;3.87;2.10;;;24.40;99.90;;;;;;4998745;28;20180;-89
2023/09/18 08:15:59;;;;;;;4.37;2.30;;;24.40;99.90;;;;;;5006788;28;20200;-89
2023/09/18 08:18:26;;;;;;;4.23;2.13;;;24.50;99.90;;;;;;5015450;28;20543;-88
2023/09/18 08:20:54;;;;;;;4.20;2.20;;;24.40;99.90;;;;;;5020801;28;20323;-89
2023/09/18 08:23:19;;;;;;;6.33;2.70;;;24.40;99.90;;;;;;5001771;28;20177;-89
2023/09/18 08:25:47;;;;;;;4.60;2.20;;;24.40;99.90;;;;;;4999514;28;20173;-89
2023/09/18 08:28:15;;;;;;;4.53;1.90;;;24.40;99.90;;;;;;5001882;28;20184;-89
2023/09/18 08:30:44;;;;;;;3.50;1.93;;;24.40;99.90;;;;;;5028198;28;20228;-89
2023/09/18 08:33:13;;;;;;;5.00;2.60;;;24.40;99.90;;;;;;4988695;28;20177;-89
2023/09/18 08:35:39;;;;;;;4.53;2.40;;;24.40;99.90;;;;;;4996102;28;20271;-88
2023/09/18 08:38:06;;;;;;;4.13;2.03;;;24.40;99.90;;;;;;4988986;28;20406;-89
2023/09/18 08:40:33;;;;;;;5.33;2.30;;;24.40;99.90;;;;;;5002956;28;20180;-89
2023/09/18 08:43:03;;;;;;;3.80;2.03;;;24.40;99.90;;;;;;4990188;28;20211;-91
2023/09/18 08:45:43;;;;;;;4.90;2.30;;;24.40;99.90;;;;;;4996807;28;20263;-89
2023/09/18 08:48:09;;;;;;;5.23;2.47;;;24.40;99.90;;;;;;4989843;28;20620;-89
2023/09/18 08:50:37;;;;;;;6.67;2.20;;;24.40;99.90;;;;;;4998958;28;20556;-89
2023/09/18 08:53:03;;;;;;;6.23;2.20;;;24.50;99.90;;;;;;4989345;28;20177;-89
2023/09/18 08:55:30;;;;;;;3.37;1.80;;;24.50;99.90;;;;;;5000357;28;20217;-89
2023/09/18 08:57:59;;;;;;;4.10;2.10;;;24.50;99.90;;;;;;4987176;28;20201;-89
2023/09/18 09:00:49;;;;;;;8.30;2.63;;;24.50;99.90;;;;;;5001525;28;20547;-90
2023/09/18 09:03:15;;;;;;;3.43;1.93;;;24.50;99.90;;;;;;4986074;28;20178;-88
2023/09/18 09:05:41;;;;;;;4.63;2.17;;;24.50;99.90;;;;;;4997455;28;20185;-88
2023/09/18 09:08:07;;;;;;;4.87;2.10;;;24.50;99.90;;;;;;4987620;28;20182;-88
2023/09/18 09:10:41;;;;;;;3.47;1.70;;;24.50;99.90;;;;;;4999397;28;20246;-88
2023/09/18 09:13:07;;;;;;;4.23;1.70;;;24.50;99.90;;;;;;5007191;28;20287;-88
2023/09/18 09:15:47;;;;;;;3.87;1.80;;;24.50;99.90;;;;;;4992446;28;20568;-88
2023/09/18 09:18:14;;;;;;;3.60;1.90;;;24.50;99.90;;;;;;5002518;28;20204;-87
2023/09/18 09:20:41;;;;;;;4.83;1.90;;;24.50;99.90;;;;;;4995193;28;20441;-87
2023/09/18 09:23:09;;;;;;;4.57;2.17;;;24.60;99.90;;;;;;5003217;28;20389;-88
2023/09/18 09:25:35;;;;;;;3.93;1.90;;;24.80;99.90;;;;;;4996311;28;20181;-88
2023/09/18 09:28:04;;;;;;;4.07;1.93;;;24.80;99.90;;;;;;4986039;28;20571;-88
2023/09/18 09:30:32;;;;;;;4.03;1.90;;;24.80;99.90;;;;;;4989866;28;20417;-88
2023/09/18 09:32:59;;;;;;;2.73;1.80;;;24.80;99.90;;;;;;4999516;28;20180;-88
2023/09/18 09:35:30;;;;;;;4.30;1.80;;;24.80;99.90;;;;;;5000424;28;20201;-88
2023/09/18 09:38:01;;;;;;;2.97;1.83;;;24.80;99.90;;;;;;4995772;28;20204;-88
2023/09/18 09:40:30;;;;;;;5.77;1.97;;;24.70;99.90;;;;;;4993273;28;20284;-88
2023/09/18 09:43:00;;;;;;;9.07;1.93;;;24.70;99.90;;;;;;5016988;28;20177;-88
2023/09/18 09:45:31;;;;;;;4.60;1.90;;;24.60;99.90;;;;;;5004547;28;20574;-88
2023/09/18 09:47:57;;;;;;;4.33;1.90;;;24.60;99.90;;;;;;4996042;28;20601;-88
2023/09/18 09:50:25;;;;;;;8.83;2.03;;;24.60;99.90;;;;;;5004594;28;20177;-88
2023/09/18 09:52:54;;;;;;;9.63;2.47;;;24.60;99.90;;;;;;4994657;28;20189;-87
2023/09/18 09:55:32;;;;;;;3.53;1.70;;;24.60;99.90;;;;;;5003617;28;20311;-86
2023/09/18 09:58:00;;;;;;;8.90;1.90;;;24.60;99.90;;;;;;5011485;28;20267;-86
2023/09/18 10:00:33;;;;;;;4.03;1.77;;;24.60;99.90;;;;;;5005091;28;20169;-87
2023/09/18 10:03:01;;;;;;;4.03;1.60;;;24.60;99.90;;;;;;5029404;28;20183;-87
2023/09/18 10:05:39;;;;;;;4.13;1.80;;;24.60;99.90;;;;;;4983837;28;20185;-88
2023/09/18 10:08:10;;;;;;;4.90;1.73;;;24.60;99.90;;;;;;4991729;28;20288;-87
2023/09/18 10:10:51;;;;;;;6.17;1.80;;;24.60;99.90;;;;;;5006340;28;20498;-87
2023/09/18 10:13:27;;;;;;;4.43;1.70;;;24.60;99.90;;;;;;5009699;28;20176;-87
2023/09/18 10:15:55;;;;;;;4.00;1.73;;;24.60;99.90;;;;;;5008088;28;20683;-87
2023/09/18 10:18:28;;;;;;;3.00;1.57;;;24.60;99.90;;;;;;4998638;28;20598;-87
2023/09/18 10:21:14;;;;;;;4.13;1.57;;;24.60;99.90;;;;;;5003839;28;20193;-87
2023/09/18 10:24:09;;;;;;;3.10;1.57;;;24.60;99.90;;;;;;4993834;28;20169;-87
2023/09/18 10:26:42;;;;;;;1.77;1.63;;;24.60;99.90;;;;;;5019976;28;20189;-87
2023/09/18 10:29:11;;;;;;;3.00;1.77;;;24.70;99.90;;;;;;4992972;28;20511;-87
2023/09/18 10:31:40;;;;;;;3.93;1.47;;;24.60;99.90;;;;;;5041353;28;20189;-87
2023/09/18 10:34:07;;;;;;;4.37;1.60;;;24.60;99.90;;;;;;4990706;28;20166;-87
2023/09/18 10:36:37;;;;;;;4.10;1.70;;;24.60;99.90;;;;;;4984583;28;20308;-87
2023/09/18 10:39:08;;;;;;;3.33;1.60;;;24.70;99.90;;;;;;4995805;28;20239;-87
2023/09/18 10:41:38;;;;;;;3.83;1.60;;;24.80;99.90;;;;;;4995247;28;20413;-87
2023/09/18 10:44:04;;;;;;;2.80;1.50;;;24.80;99.90;;;;;;5010154;28;20327;-87
2023/09/18 10:46:31;;;;;;;2.77;1.40;;;24.90;99.90;;;;;;5007048;28;20188;-87
2023/09/18 10:48:59;;;;;;;4.75;1.75;;;24.90;99.90;;;;;;4996969;28;20468;-87
2023/09/18 10:51:27;;;;;;;2.93;1.60;;;24.90;99.90;;;;;;5008866;28;20515;-87
2023/09/18 10:53:53;;;;;;;4.00;1.40;;;24.90;99.90;;;;;;4998146;28;20460;-87
2023/09/18 10:56:22;;;;;;;5.38;1.67;;;25.00;99.90;;;;;;5005662;28;20219;-88
2023/09/18 10:58:59;;;;;;;2.20;1.57;;;25.00;99.90;;;;;;5000431;28;20414;-87
2023/09/18 11:01:27;;;;;;;3.53;1.80;;;25.00;99.90;;;;;;5006312;28;20185;-87
2023/09/18 11:03:57;;;;;;;3.00;1.38;;;25.00;99.90;;;;;;5008059;28;20177;-88
2023/09/18 11:06:26;;;;;;;3.28;1.60;;;25.00;99.90;;;;;;4990775;28;20192;-87
2023/09/18 11:09:01;;;;;;;4.43;1.80;;;25.00;99.90;;;;;;4994233;28;20173;-87
2023/09/18 11:11:29;;;;;;;4.22;1.60;;;25.10;99.90;;;;;;4993528;28;20177;-87
2023/09/18 11:13:56;;;;;;;2.90;1.67;;;25.10;99.70;;;;;;4990082;28;20450;-87
2023/09/18 11:16:28;;;;;;;4.53;1.48;;;25.20;99.50;;;;;;5025848;28;20614;-86
2023/09/18 11:19:05;;;;;;;4.77;1.70;;;25.20;99.60;;;;;;4992538;28;20174;-87
2023/09/18 11:21:33;;;;;;;3.63;1.67;;;25.20;99.60;;;;;;4994384;28;20209;-87
2023/09/18 11:24:06;;;;;;;4.60;1.60;;;25.20;99.50;;;;;;4989238;28;20188;-87
2023/09/18 11:26:37;;;;;;;3.00;1.60;;;25.20;99.50;;;;;;5027948;28;20178;-86
2023/09/18 11:29:09;;;;;;;2.93;1.50;;;25.20;99.60;;;;;;4988527;28;20268;-87
2023/09/18 11:31:50;;;;;;;2.40;1.60;;;25.20;99.50;;;;;;4995535;28;20702;-87
2023/09/18 11:34:36;;;;;;;3.57;1.53;;;25.20;99.50;;;;;;4988865;28;20597;-87
2023/09/18 11:37:19;;;;;;;2.83;1.60;;;25.20;99.50;;;;;;4997404;28;20182;-87
2023/09/18 11:39:46;;;;;;;3.97;1.70;;;25.20;99.40;;;;;;4993443;28;20161;-87
2023/09/18 11:42:22;;;;;;;1.90;1.70;;;25.20;99.10;;;;;;4991072;28;20281;-87
2023/09/18 11:44:49;;;;;;;3.33;2.00;;;25.20;99.30;;;;;;4990860;28;20581;-87
2023/09/18 11:47:21;;;;;;;2.90;1.70;;;25.30;99.10;;;;;;5010450;28;20208;-86
2023/09/18 11:49:58;;;;;;;3.03;1.77;;;25.30;99.10;;;;;;4988148;28;20174;-87
2023/09/18 11:52:26;;;;;;;3.50;1.70;;;25.30;99.00;;;;;;4992839;28;20197;-86
2023/09/18 11:54:53;;;;;;;4.40;1.63;;;25.30;99.10;;;;;;4986639;28;20620;-86
2023/09/18 11:57:22;;;;;;;4.07;1.93;;;25.40;99.00;;;;;;4995581;28;20178;-87
2023/09/18 11:59:47;;;;;;;2.07;1.40;;;25.30;98.70;;;;;;4986081;28;20161;-86
2023/09/18 12:02:27;;;;;;;2.93;1.40;;;25.30;98.90;;;;;;4995725;28;20310;-87
2023/09/18 12:04:56;;;;;;;5.53;1.70;;;25.30;98.80;;;;;;4985920;28;20319;-86
2023/09/18 12:07:24;;;;;;;5.00;1.70;;;25.30;98.00;;;;;;5013134;28;20235;-87
2023/09/18 12:09:50;;;;;;;2.60;1.87;;;25.40;98.00;;;;;;4987086;28;20334;-86
2023/09/18 12:12:17;;;;;;;2.17;1.40;;;25.40;98.40;;;;;;5015337;28;20181;-86
2023/09/18 12:14:44;;;;;;;2.60;1.33;;;25.40;98.40;;;;;;5003996;28;20166;-86
2023/09/18 12:17:15;;;;;;;2.70;1.50;;;25.30;98.40;;;;;;4993073;28;20509;-86
2023/09/18 12:19:53;;;;;;;2.27;1.43;;;25.30;98.10;;;;;;5004581;28;20467;-87
2023/09/18 12:22:27;;;;;;;1.83;1.40;;;25.30;98.00;;;;;;5007505;28;20246;-86
2023/09/18 12:24:53;;;;;;;2.73;1.70;;;25.30;98.10;;;;;;5004228;28;20311;-87
2023/09/18 12:27:19;;;;;;;5.33;1.70;;;25.20;98.20;;;;;;5009496;28;20371;-86
2023/09/18 12:29:44;;;;;;;3.03;1.70;;;25.20;98.00;;;;;;5037793;28;20209;-87
2023/09/18 12:32:13;;;;;;;2.57;1.60;;;25.20;98.10;;;;;;4994234;28;20177;-86
2023/09/18 12:34:41;;;;;;;2.80;1.60;;;25.20;98.30;;;;;;5003491;28;20242;-87
2023/09/18 12:37:12;;;;;;;2.30;1.60;;;25.20;98.30;;;;;;4996728;28;20220;-87
2023/09/18 12:39:38;;;;;;;3.73;1.40;;;25.20;98.40;;;;;;5002056;28;20284;-87
2023/09/18 12:42:04;;;;;;;3.90;1.47;;;25.20;98.40;;;;;;4994471;28;20342;-86
2023/09/18 12:44:30;;;;;;;2.33;1.40;;;25.20;98.50;;;;;;4989327;28;20177;-86
2023/09/18 12:46:57;;;;;;;4.80;1.57;;;25.20;98.60;;;;;;4989934;28;20169;-87
2023/09/18 12:49:27;;;;;;;2.43;1.53;;;25.20;98.50;;;;;;4993349;28;20410;-87
2023/09/18 12:52:01;;;;;;;2.87;1.60;;;25.20;98.60;;;;;;4986311;28;20447;-87